sensor_id;sensor_type;location;lat;lon;timestamp;temperature;humidity
18717;DHT22;9487;50.892;6.906;2022-08-21T00:01:07;19.00;99.90
18717;DHT22;9487;50.892;6.906;2022-08-21T00:03:36;18.90;99.90
18717;DHT22;9487;50.892;6.906;2022-08-21T00:06:03;18.90;99.90
18717;DHT22;9487;50.892;6.906;2022-08-21T00:08:31;19.00;99.90
18717;DHT22;9487;50.892;6.906;2022-08-21T00:10:59;19.00;99.90
18717;DHT22;9487;50.892;6.906;2022-08-21T00:13:26;19.00;99.90
18717;DHT22;9487;50.892;6.906;2022-08-21T00:15:53;19.10;99.90
18717;DHT22;9487;50.892;6.906;2022-08-21T00:18:21;19.00;99.90
18717;DHT22;9487;50.892;6.906;2022-08-21T00:20:48;19.00;99.90
18717;DHT22;9487;50.892;6.906;2022-08-21T00:23:15;19.00;99.90
18717;DHT22;9487;50.892;6.906;2022-08-21T00:25:43;19.00;99.90
18717;DHT22;9487;50.892;6.906;2022-08-21T00:28:12;18.90;99.90
18717;DHT22;9487;50.892;6.906;2022-08-21T00:30:40;18.90;99.90
18717;DHT22;9487;50.892;6.906;2022-08-21T00:33:08;19.10;99.90
18717;DHT22;9487;50.892;6.906;2022-08-21T00:35:37;19.10;99.90
18717;DHT22;9487;50.892;6.906;2022-08-21T00:38:06;19.10;99.90
18717;DHT22;9487;50.892;6.906;2022-08-21T00:40:37;19.00;99.90
18717;DHT22;9487;50.892;6.906;2022-08-21T00:43:06;18.90;99.90
18717;DHT22;9487;50.892;6.906;2022-08-21T00:45:35;18.80;99.90
18717;DHT22;9487;50.892;6.906;2022-08-21T00:48:03;18.80;99.90
18717;DHT22;9487;50.892;6.906;2022-08-21T00:50:33;18.70;99.90
18717;DHT22;9487;50.892;6.906;2022-08-21T00:53:02;18.70;99.90
18717;DHT22;9487;50.892;6.906;2022-08-21T00:55:30;18.60;99.90
18717;DHT22;9487;50.892;6.906;2022-08-21T00:57:59;18.50;99.90
18717;DHT22;9487;50.892;6.906;2022-08-21T01:00:30;18.50;99.90
18717;DHT22;9487;50.892;6.906;2022-08-21T01:03:01;18.40;99.90
18717;DHT22;9487;50.892;6.906;2022-08-21T01:05:28;18.40;99.90
18717;DHT22;9487;50.892;6.906;2022-08-21T01:07:55;18.40;99.90
18717;DHT22;9487;50.892;6.906;2022-08-21T01:10:23;18.40;99.90
18717;DHT22;9487;50.892;6.906;2022-08-21T01:12:51;18.40;99.90
18717;DHT22;9487;50.892;6.906;2022-08-21T01:15:19;18.40;99.90
18717;DHT22;9487;50.892;6.906;2022-08-21T01:17:47;18.40;99.90
18717;DHT22;9487;50.892;6.906;2022-08-21T01:20:16;18.40;99.90
18717;DHT22;9487;50.892;6.906;2022-08-21T01:22:45;18.40;99.90
18717;DHT22;9487;50.892;6.906;2022-08-21T01:25:15;18.40;99.90
18717;DHT22;9487;50.892;6.906;2022-08-21T01:27:43;18.20;99.90
18717;DHT22;9487;50.892;6.906;2022-08-21T01:30:13;18.10;99.90
18717;DHT22;9487;50.892;6.906;2022-08-21T01:32:40;18.10;99.90
18717;DHT22;9487;50.892;6.906;2022-08-21T01:35:08;18.10;99.90
18717;DHT22;9487;50.892;6.906;2022-08-21T01:37:37;18.10;99.90
18717;DHT22;9487;50.892;6.906;2022-08-21T01:40:07;18.00;99.90
18717;DHT22;9487;50.892;6.906;2022-08-21T01:42:34;18.10;99.90
18717;DHT22;9487;50.892;6.906;2022-08-21T01:45:03;18.00;99.90
18717;DHT22;9487;50.892;6.906;2022-08-21T01:47:30;18.00;99.90
18717;DHT22;9487;50.892;6.906;2022-08-21T01:49:58;18.00;99.90
18717;DHT22;9487;50.892;6.906;2022-08-21T01:52:25;17.90;99.90
18717;DHT22;9487;50.892;6.906;2022-08-21T01:54:52;17.90;99.90
18717;DHT22;9487;50.892;6.906;2022-08-21T01:57:21;17.80;99.90
18717;DHT22;9487;50.892;6.906;2022-08-21T01:59:48;17.80;99.90
18717;DHT22;9487;50.892;6.906;2022-08-21T02:02:15;17.80;99.90
18717;DHT22;9487;50.892;6.906;2022-08-21T02:04:42;17.80;99.90
18717;DHT22;9487;50.892;6.906;2022-08-21T02:07:09;17.90;99.90
18717;DHT22;9487;50.892;6.906;2022-08-21T02:09:36;17.90;99.90
18717;DHT22;9487;50.892;6.906;2022-08-21T02:12:04;18.00;99.90
18717;DHT22;9487;50.892;6.906;2022-08-21T02:14:32;17.90;99.90
18717;DHT22;9487;50.892;6.906;2022-08-21T02:17:00;17.90;99.90
18717;DHT22;9487;50.892;6.906;2022-08-21T02:19:27;17.90;99.90
18717;DHT22;9487;50.892;6.906;2022-08-21T02:21:54;17.90;99.90
18717;DHT22;9487;50.892;6.906;2022-08-21T02:24:21;17.80;99.90
18717;DHT22;9487;50.892;6.906;2022-08-21T02:26:48;17.70;99.90
18717;DHT22;9487;50.892;6.906;2022-08-21T02:29:16;17.70;99.90
18717;DHT22;9487;50.892;6.906;2022-08-21T02:31:44;17.60;99.90
18717;DHT22;9487;50.892;6.906;2022-08-21T02:34:11;17.60;99.90
18717;DHT22;9487;50.892;6.906;2022-08-21T02:36:38;17.60;99.90
18717;DHT22;9487;50.892;6.906;2022-08-21T02:39:05;17.60;99.90
18717;DHT22;9487;50.892;6.906;2022-08-21T02:41:32;17.50;99.90
18717;DHT22;9487;50.892;6.906;2022-08-21T02:43:59;17.20;99.90
18717;DHT22;9487;50.892;6.906;2022-08-21T02:46:26;17.00;99.90
18717;DHT22;9487;50.892;6.906;2022-08-21T02:48:55;16.90;99.90
18717;DHT22;9487;50.892;6.906;2022-08-21T02:51:22;17.00;99.90
18717;DHT22;9487;50.892;6.906;2022-08-21T02:53:50;17.10;99.90
18717;DHT22;9487;50.892;6.906;2022-08-21T02:56:19;17.10;99.90
18717;DHT22;9487;50.892;6.906;2022-08-21T02:58:48;17.00;99.90
18717;DHT22;9487;50.892;6.906;2022-08-21T03:01:17;17.00;99.90
18717;DHT22;9487;50.892;6.906;2022-08-21T03:03:46;17.10;99.90
18717;DHT22;9487;50.892;6.906;2022-08-21T03:06:18;17.20;99.90
18717;DHT22;9487;50.892;6.906;2022-08-21T03:08:46;17.10;99.90
18717;DHT22;9487;50.892;6.906;2022-08-21T03:11:14;17.10;99.90
18717;DHT22;9487;50.892;6.906;2022-08-21T03:13:42;17.10;99.90
18717;DHT22;9487;50.892;6.906;2022-08-21T03:16:09;17.10;99.90
18717;DHT22;9487;50.892;6.906;2022-08-21T03:18:36;17.10;99.90
18717;DHT22;9487;50.892;6.906;2022-08-21T03:21:04;17.10;99.90
18717;DHT22;9487;50.892;6.906;2022-08-21T03:23:33;17.10;99.90
18717;DHT22;9487;50.892;6.906;2022-08-21T03:26:00;17.10;99.90
18717;DHT22;9487;50.892;6.906;2022-08-21T03:28:27;17.10;99.90
18717;DHT22;9487;50.892;6.906;2022-08-21T03:30:54;17.10;99.90
18717;DHT22;9487;50.892;6.906;2022-08-21T03:33:22;17.10;99.90
18717;DHT22;9487;50.892;6.906;2022-08-21T03:35:56;17.10;99.90
18717;DHT22;9487;50.892;6.906;2022-08-21T03:38:27;17.10;99.90
18717;DHT22;9487;50.892;6.906;2022-08-21T03:40:55;17.00;99.90
18717;DHT22;9487;50.892;6.906;2022-08-21T03:43:22;17.00;99.90
18717;DHT22;9487;50.892;6.906;2022-08-21T03:45:49;17.00;99.90
18717;DHT22;9487;50.892;6.906;2022-08-21T03:48:22;16.90;99.90
18717;DHT22;9487;50.892;6.906;2022-08-21T03:50:52;16.90;99.90
18717;DHT22;9487;50.892;6.906;2022-08-21T03:53:19;17.00;99.90
18717;DHT22;9487;50.892;6.906;2022-08-21T03:55:47;16.90;99.90
18717;DHT22;9487;50.892;6.906;2022-08-21T03:58:17;16.90;99.90
18717;DHT22;9487;50.892;6.906;2022-08-21T04:00:46;16.90;99.90
18717;DHT22;9487;50.892;6.906;2022-08-21T04:03:14;16.90;99.90
18717;DHT22;9487;50.892;6.906;2022-08-21T04:05:41;16.90;99.90
18717;DHT22;9487;50.892;6.906;2022-08-21T04:08:08;16.90;99.90
18717;DHT22;9487;50.892;6.906;2022-08-21T04:10:37;16.80;99.90
18717;DHT22;9487;50.892;6.906;2022-08-21T04:13:05;16.90;99.90
18717;DHT22;9487;50.892;6.906;2022-08-21T04:15:34;16.90;99.90
18717;DHT22;9487;50.892;6.906;2022-08-21T04:18:02;16.90;99.90
18717;DHT22;9487;50.892;6.906;2022-08-21T04:20:29;16.90;99.90
18717;DHT22;9487;50.892;6.906;2022-08-21T04:22:56;16.80;99.90
18717;DHT22;9487;50.892;6.906;2022-08-21T04:25:23;16.80;99.90
18717;DHT22;9487;50.892;6.906;2022-08-21T04:27:51;16.80;99.90
18717;DHT22;9487;50.892;6.906;2022-08-21T04:30:21;16.80;99.90
18717;DHT22;9487;50.892;6.906;2022-08-21T04:32:50;16.70;99.90
18717;DHT22;9487;50.892;6.906;2022-08-21T04:35:19;16.70;99.90
18717;DHT22;9487;50.892;6.906;2022-08-21T04:37:46;16.80;99.90
18717;DHT22;9487;50.892;6.906;2022-08-21T04:40:15;16.80;99.90
18717;DHT22;9487;50.892;6.906;2022-08-21T04:42:45;16.80;99.90
18717;DHT22;9487;50.892;6.906;2022-08-21T04:45:17;16.90;99.90
18717;DHT22;9487;50.892;6.906;2022-08-21T04:47:50;16.80;99.90
18717;DHT22;9487;50.892;6.906;2022-08-21T04:50:18;16.80;99.90
18717;DHT22;9487;50.892;6.906;2022-08-21T04:52:46;16.80;99.90
18717;DHT22;9487;50.892;6.906;2022-08-21T04:55:14;16.70;99.90
18717;DHT22;9487;50.892;6.906;2022-08-21T04:57:42;16.70;99.90
18717;DHT22;9487;50.892;6.906;2022-08-21T05:00:10;16.60;99.90
18717;DHT22;9487;50.892;6.906;2022-08-21T05:02:39;16.60;99.90
18717;DHT22;9487;50.892;6.906;2022-08-21T05:05:08;16.60;99.90
18717;DHT22;9487;50.892;6.906;2022-08-21T05:07:36;16.70;99.90
18717;DHT22;9487;50.892;6.906;2022-08-21T05:10:04;16.70;99.90
18717;DHT22;9487;50.892;6.906;2022-08-21T05:12:33;16.70;99.90
18717;DHT22;9487;50.892;6.906;2022-08-21T05:15:01;16.80;99.90
18717;DHT22;9487;50.892;6.906;2022-08-21T05:17:28;16.90;99.90
18717;DHT22;9487;50.892;6.906;2022-08-21T05:19:55;17.00;99.90
18717;DHT22;9487;50.892;6.906;2022-08-21T05:22:24;17.10;99.90
18717;DHT22;9487;50.892;6.906;2022-08-21T05:24:52;17.20;99.90
18717;DHT22;9487;50.892;6.906;2022-08-21T05:27:19;17.30;99.90
18717;DHT22;9487;50.892;6.906;2022-08-21T05:29:46;17.30;99.90
18717;DHT22;9487;50.892;6.906;2022-08-21T05:32:13;17.30;99.90
18717;DHT22;9487;50.892;6.906;2022-08-21T05:34:40;17.40;99.90
18717;DHT22;9487;50.892;6.906;2022-08-21T05:37:10;17.50;99.90
18717;DHT22;9487;50.892;6.906;2022-08-21T05:39:39;17.50;99.90
18717;DHT22;9487;50.892;6.906;2022-08-21T05:42:07;17.60;99.90
18717;DHT22;9487;50.892;6.906;2022-08-21T05:44:34;17.60;99.90
18717;DHT22;9487;50.892;6.906;2022-08-21T05:47:05;17.70;99.90
18717;DHT22;9487;50.892;6.906;2022-08-21T05:49:33;17.70;99.90
18717;DHT22;9487;50.892;6.906;2022-08-21T05:52:01;17.70;99.90
18717;DHT22;9487;50.892;6.906;2022-08-21T05:54:28;17.80;99.90
18717;DHT22;9487;50.892;6.906;2022-08-21T05:56:56;17.90;99.90
18717;DHT22;9487;50.892;6.906;2022-08-21T05:59:23;18.10;99.90
18717;DHT22;9487;50.892;6.906;2022-08-21T06:01:50;18.20;99.90
18717;DHT22;9487;50.892;6.906;2022-08-21T06:04:18;18.30;99.90
18717;DHT22;9487;50.892;6.906;2022-08-21T06:06:45;18.40;99.90
18717;DHT22;9487;50.892;6.906;2022-08-21T06:09:13;18.60;99.90
18717;DHT22;9487;50.892;6.906;2022-08-21T06:11:40;18.60;99.90
18717;DHT22;9487;50.892;6.906;2022-08-21T06:14:08;18.70;99.90
18717;DHT22;9487;50.892;6.906;2022-08-21T06:16:35;18.70;99.90
18717;DHT22;9487;50.892;6.906;2022-08-21T06:19:02;18.60;99.90
18717;DHT22;9487;50.892;6.906;2022-08-21T06:21:29;18.70;99.90
18717;DHT22;9487;50.892;6.906;2022-08-21T06:23:56;18.90;99.90
18717;DHT22;9487;50.892;6.906;2022-08-21T06:26:24;19.30;99.90
18717;DHT22;9487;50.892;6.906;2022-08-21T06:28:51;19.80;99.90
18717;DHT22;9487;50.892;6.906;2022-08-21T06:31:21;20.30;99.90
18717;DHT22;9487;50.892;6.906;2022-08-21T06:33:49;20.70;99.90
18717;DHT22;9487;50.892;6.906;2022-08-21T06:36:16;20.50;99.90
18717;DHT22;9487;50.892;6.906;2022-08-21T06:38:43;20.50;99.90
18717;DHT22;9487;50.892;6.906;2022-08-21T06:41:11;20.50;99.90
18717;DHT22;9487;50.892;6.906;2022-08-21T06:43:38;20.30;99.90
18717;DHT22;9487;50.892;6.906;2022-08-21T06:46:06;20.40;99.90
18717;DHT22;9487;50.892;6.906;2022-08-21T06:48:34;20.60;99.90
18717;DHT22;9487;50.892;6.906;2022-08-21T06:51:01;20.90;99.90
18717;DHT22;9487;50.892;6.906;2022-08-21T06:53:28;21.00;99.90
18717;DHT22;9487;50.892;6.906;2022-08-21T06:55:55;21.10;99.90
18717;DHT22;9487;50.892;6.906;2022-08-21T06:58:22;21.10;99.90
18717;DHT22;9487;50.892;6.906;2022-08-21T07:00:50;20.80;99.90
18717;DHT22;9487;50.892;6.906;2022-08-21T07:03:20;20.70;99.90
18717;DHT22;9487;50.892;6.906;2022-08-21T07:05:49;20.60;99.90
18717;DHT22;9487;50.892;6.906;2022-08-21T07:08:16;20.60;99.90
18717;DHT22;9487;50.892;6.906;2022-08-21T07:10:43;20.60;99.90
18717;DHT22;9487;50.892;6.906;2022-08-21T07:13:10;20.90;99.90
18717;DHT22;9487;50.892;6.906;2022-08-21T07:15:37;21.10;99.90
18717;DHT22;9487;50.892;6.906;2022-08-21T07:18:05;21.30;99.90
18717;DHT22;9487;50.892;6.906;2022-08-21T07:20:32;21.50;99.90
18717;DHT22;9487;50.892;6.906;2022-08-21T07:23:03;21.60;99.90
18717;DHT22;9487;50.892;6.906;2022-08-21T07:25:31;21.30;99.90
18717;DHT22;9487;50.892;6.906;2022-08-21T07:27:58;21.20;99.90
18717;DHT22;9487;50.892;6.906;2022-08-21T07:30:25;21.50;99.90
18717;DHT22;9487;50.892;6.906;2022-08-21T07:32:52;21.70;99.90
18717;DHT22;9487;50.892;6.906;2022-08-21T07:35:20;21.60;99.90
18717;DHT22;9487;50.892;6.906;2022-08-21T07:37:48;21.50;99.90
18717;DHT22;9487;50.892;6.906;2022-08-21T07:40:17;21.80;99.90
18717;DHT22;9487;50.892;6.906;2022-08-21T07:42:45;21.90;99.90
18717;DHT22;9487;50.892;6.906;2022-08-21T07:45:13;21.80;99.90
18717;DHT22;9487;50.892;6.906;2022-08-21T07:47:41;22.00;99.90
18717;DHT22;9487;50.892;6.906;2022-08-21T07:50:08;21.90;99.90
18717;DHT22;9487;50.892;6.906;2022-08-21T07:52:36;21.80;99.90
18717;DHT22;9487;50.892;6.906;2022-08-21T07:55:04;21.80;99.90
18717;DHT22;9487;50.892;6.906;2022-08-21T07:57:33;22.00;99.90
18717;DHT22;9487;50.892;6.906;2022-08-21T08:00:00;22.20;99.90
18717;DHT22;9487;50.892;6.906;2022-08-21T08:02:28;21.90;99.90
18717;DHT22;9487;50.892;6.906;2022-08-21T08:04:59;22.00;99.90
18717;DHT22;9487;50.892;6.906;2022-08-21T08:07:27;22.20;99.90
18717;DHT22;9487;50.892;6.906;2022-08-21T08:09:54;22.20;99.90
18717;DHT22;9487;50.892;6.906;2022-08-21T08:12:21;22.20;99.90
18717;DHT22;9487;50.892;6.906;2022-08-21T08:14:49;22.50;99.90
18717;DHT22;9487;50.892;6.906;2022-08-21T08:17:16;22.60;99.90
18717;DHT22;9487;50.892;6.906;2022-08-21T08:19:47;22.80;99.90
18717;DHT22;9487;50.892;6.906;2022-08-21T08:22:15;23.10;99.90
18717;DHT22;9487;50.892;6.906;2022-08-21T08:24:42;23.20;99.90
18717;DHT22;9487;50.892;6.906;2022-08-21T08:27:09;23.30;99.90
18717;DHT22;9487;50.892;6.906;2022-08-21T08:29:37;23.30;99.90
18717;DHT22;9487;50.892;6.906;2022-08-21T08:32:06;23.30;99.90
18717;DHT22;9487;50.892;6.906;2022-08-21T08:34:33;23.30;99.90
18717;DHT22;9487;50.892;6.906;2022-08-21T08:37:00;23.30;99.90
18717;DHT22;9487;50.892;6.906;2022-08-21T08:39:28;23.10;99.90
18717;DHT22;9487;50.892;6.906;2022-08-21T08:41:59;23.10;99.90
18717;DHT22;9487;50.892;6.906;2022-08-21T08:44:29;23.10;99.90
18717;DHT22;9487;50.892;6.906;2022-08-21T08:46:57;23.20;99.90
18717;DHT22;9487;50.892;6.906;2022-08-21T08:49:31;23.10;99.90
18717;DHT22;9487;50.892;6.906;2022-08-21T08:52:03;23.20;99.90
18717;DHT22;9487;50.892;6.906;2022-08-21T08:54:35;23.20;99.90
18717;DHT22;9487;50.892;6.906;2022-08-21T08:57:09;23.40;99.90
18717;DHT22;9487;50.892;6.906;2022-08-21T08:59:40;23.20;99.90
18717;DHT22;9487;50.892;6.906;2022-08-21T09:02:09;23.30;99.90
18717;DHT22;9487;50.892;6.906;2022-08-21T09:04:39;23.20;99.90
18717;DHT22;9487;50.892;6.906;2022-08-21T09:07:12;23.40;99.90
18717;DHT22;9487;50.892;6.906;2022-08-21T09:09:51;23.20;99.90
18717;DHT22;9487;50.892;6.906;2022-08-21T09:12:33;23.40;99.90
18717;DHT22;9487;50.892;6.906;2022-08-21T09:15:10;23.30;99.90
18717;DHT22;9487;50.892;6.906;2022-08-21T09:17:55;23.00;99.90
18717;DHT22;9487;50.892;6.906;2022-08-21T09:20:32;23.20;99.90
18717;DHT22;9487;50.892;6.906;2022-08-21T09:23:17;23.50;99.90
18717;DHT22;9487;50.892;6.906;2022-08-21T09:25:55;23.60;99.90
18717;DHT22;9487;50.892;6.906;2022-08-21T09:28:22;23.70;99.90
18717;DHT22;9487;50.892;6.906;2022-08-21T09:30:50;23.70;99.90
18717;DHT22;9487;50.892;6.906;2022-08-21T09:33:20;23.90;99.90
18717;DHT22;9487;50.892;6.906;2022-08-21T09:35:51;23.90;99.90
18717;DHT22;9487;50.892;6.906;2022-08-21T09:38:25;24.20;99.90
18717;DHT22;9487;50.892;6.906;2022-08-21T09:40:57;24.30;99.90
18717;DHT22;9487;50.892;6.906;2022-08-21T09:43:26;24.00;99.90
18717;DHT22;9487;50.892;6.906;2022-08-21T09:46:05;24.10;99.90
18717;DHT22;9487;50.892;6.906;2022-08-21T09:48:40;24.00;99.90
18717;DHT22;9487;50.892;6.906;2022-08-21T09:51:11;23.90;99.90
18717;DHT22;9487;50.892;6.906;2022-08-21T09:53:42;24.10;99.90
18717;DHT22;9487;50.892;6.906;2022-08-21T09:56:19;24.10;99.90
18717;DHT22;9487;50.892;6.906;2022-08-21T09:59:18;23.90;99.90
18717;DHT22;9487;50.892;6.906;2022-08-21T10:01:48;23.70;99.90
18717;DHT22;9487;50.892;6.906;2022-08-21T10:04:20;24.00;99.90
18717;DHT22;9487;50.892;6.906;2022-08-21T10:06:48;24.20;99.90
18717;DHT22;9487;50.892;6.906;2022-08-21T10:09:17;24.20;99.90
18717;DHT22;9487;50.892;6.906;2022-08-21T10:11:52;24.10;99.90
18717;DHT22;9487;50.892;6.906;2022-08-21T10:14:33;24.00;99.90
18717;DHT22;9487;50.892;6.906;2022-08-21T10:17:04;24.00;99.90
18717;DHT22;9487;50.892;6.906;2022-08-21T10:19:41;24.00;99.90
18717;DHT22;9487;50.892;6.906;2022-08-21T10:22:19;24.10;99.90
18717;DHT22;9487;50.892;6.906;2022-08-21T10:24:57;24.30;99.90
18717;DHT22;9487;50.892;6.906;2022-08-21T10:27:39;24.60;99.90
18717;DHT22;9487;50.892;6.906;2022-08-21T10:30:11;24.60;99.90
18717;DHT22;9487;50.892;6.906;2022-08-21T10:32:54;24.70;99.90
18717;DHT22;9487;50.892;6.906;2022-08-21T10:35:26;24.70;99.90
18717;DHT22;9487;50.892;6.906;2022-08-21T10:38:10;24.80;99.90
18717;DHT22;9487;50.892;6.906;2022-08-21T10:40:46;24.60;99.90
18717;DHT22;9487;50.892;6.906;2022-08-21T10:43:23;25.00;99.90
18717;DHT22;9487;50.892;6.906;2022-08-21T10:46:00;25.20;99.90
18717;DHT22;9487;50.892;6.906;2022-08-21T10:48:33;24.90;99.90
18717;DHT22;9487;50.892;6.906;2022-08-21T10:51:08;25.10;99.90
18717;DHT22;9487;50.892;6.906;2022-08-21T10:53:53;25.20;99.90
18717;DHT22;9487;50.892;6.906;2022-08-21T10:56:23;25.30;99.90
18717;DHT22;9487;50.892;6.906;2022-08-21T10:59:02;25.50;99.90
18717;DHT22;9487;50.892;6.906;2022-08-21T11:01:34;25.60;99.90
18717;DHT22;9487;50.892;6.906;2022-08-21T11:04:12;25.80;99.90
18717;DHT22;9487;50.892;6.906;2022-08-21T11:06:44;26.00;99.90
18717;DHT22;9487;50.892;6.906;2022-08-21T11:09:16;25.90;99.90
18717;DHT22;9487;50.892;6.906;2022-08-21T11:11:47;24.70;99.90
18717;DHT22;9487;50.892;6.906;2022-08-21T11:14:21;25.00;99.90
18717;DHT22;9487;50.892;6.906;2022-08-21T11:17:00;25.20;99.90
18717;DHT22;9487;50.892;6.906;2022-08-21T11:19:30;25.50;99.90
18717;DHT22;9487;50.892;6.906;2022-08-21T11:22:02;25.80;99.90
18717;DHT22;9487;50.892;6.906;2022-08-21T11:24:43;25.80;99.90
18717;DHT22;9487;50.892;6.906;2022-08-21T11:27:18;25.60;99.90
18717;DHT22;9487;50.892;6.906;2022-08-21T11:29:49;25.60;99.90
18717;DHT22;9487;50.892;6.906;2022-08-21T11:32:29;25.80;99.90
18717;DHT22;9487;50.892;6.906;2022-08-21T11:35:06;25.50;99.90
18717;DHT22;9487;50.892;6.906;2022-08-21T11:37:46;25.60;99.90
18717;DHT22;9487;50.892;6.906;2022-08-21T11:40:25;25.60;99.90
18717;DHT22;9487;50.892;6.906;2022-08-21T11:43:02;25.50;99.90
18717;DHT22;9487;50.892;6.906;2022-08-21T11:45:41;25.60;99.90
18717;DHT22;9487;50.892;6.906;2022-08-21T11:48:27;25.60;99.90
18717;DHT22;9487;50.892;6.906;2022-08-21T11:51:01;25.20;99.90
18717;DHT22;9487;50.892;6.906;2022-08-21T11:53:36;25.10;99.90
18717;DHT22;9487;50.892;6.906;2022-08-21T11:56:10;24.80;99.90
18717;DHT22;9487;50.892;6.906;2022-08-21T11:58:40;24.80;99.90
18717;DHT22;9487;50.892;6.906;2022-08-21T12:01:11;24.80;99.90
18717;DHT22;9487;50.892;6.906;2022-08-21T12:03:41;25.30;99.90
18717;DHT22;9487;50.892;6.906;2022-08-21T12:06:11;25.50;99.90
18717;DHT22;9487;50.892;6.906;2022-08-21T12:08:39;25.60;99.90
18717;DHT22;9487;50.892;6.906;2022-08-21T12:11:10;25.60;99.90
18717;DHT22;9487;50.892;6.906;2022-08-21T12:13:55;25.50;99.90
18717;DHT22;9487;50.892;6.906;2022-08-21T12:16:30;25.20;99.90
18717;DHT22;9487;50.892;6.906;2022-08-21T12:19:04;25.60;99.90
18717;DHT22;9487;50.892;6.906;2022-08-21T12:21:31;25.40;99.90
18717;DHT22;9487;50.892;6.906;2022-08-21T12:24:05;25.80;99.90
18717;DHT22;9487;50.892;6.906;2022-08-21T12:26:50;25.90;99.90
18717;DHT22;9487;50.892;6.906;2022-08-21T12:29:23;26.10;99.90
18717;DHT22;9487;50.892;6.906;2022-08-21T12:31:57;26.20;99.90
18717;DHT22;9487;50.892;6.906;2022-08-21T12:34:30;26.30;99.90
18717;DHT22;9487;50.892;6.906;2022-08-21T12:37:01;26.20;99.90
18717;DHT22;9487;50.892;6.906;2022-08-21T12:39:30;25.80;99.90
18717;DHT22;9487;50.892;6.906;2022-08-21T12:42:03;25.60;99.90
18717;DHT22;9487;50.892;6.906;2022-08-21T12:44:35;25.80;99.90
18717;DHT22;9487;50.892;6.906;2022-08-21T12:47:06;25.80;99.90
18717;DHT22;9487;50.892;6.906;2022-08-21T12:49:35;25.90;99.90
18717;DHT22;9487;50.892;6.906;2022-08-21T12:52:09;25.70;99.90
18717;DHT22;9487;50.892;6.906;2022-08-21T12:54:40;25.60;99.90
18717;DHT22;9487;50.892;6.906;2022-08-21T12:57:16;25.70;99.90
18717;DHT22;9487;50.892;6.906;2022-08-21T12:59:44;25.90;99.90
18717;DHT22;9487;50.892;6.906;2022-08-21T13:02:16;26.10;99.90
18717;DHT22;9487;50.892;6.906;2022-08-21T13:04:44;25.90;99.90
18717;DHT22;9487;50.892;6.906;2022-08-21T13:07:13;25.70;99.90
18717;DHT22;9487;50.892;6.906;2022-08-21T13:09:46;25.60;99.90
18717;DHT22;9487;50.892;6.906;2022-08-21T13:12:15;25.50;99.90
18717;DHT22;9487;50.892;6.906;2022-08-21T13:14:44;25.60;99.90
18717;DHT22;9487;50.892;6.906;2022-08-21T13:17:12;25.60;99.90
18717;DHT22;9487;50.892;6.906;2022-08-21T13:19:40;25.60;99.90
18717;DHT22;9487;50.892;6.906;2022-08-21T13:22:13;25.80;99.90
18717;DHT22;9487;50.892;6.906;2022-08-21T13:24:40;25.70;99.90
18717;DHT22;9487;50.892;6.906;2022-08-21T13:27:19;25.60;99.90
18717;DHT22;9487;50.892;6.906;2022-08-21T13:29:46;25.40;99.90
18717;DHT22;9487;50.892;6.906;2022-08-21T13:32:22;25.20;99.90
18717;DHT22;9487;50.892;6.906;2022-08-21T13:34:52;25.20;99.90
18717;DHT22;9487;50.892;6.906;2022-08-21T13:37:19;25.30;99.90
18717;DHT22;9487;50.892;6.906;2022-08-21T13:39:49;25.30;99.90
18717;DHT22;9487;50.892;6.906;2022-08-21T13:42:19;25.40;99.90
18717;DHT22;9487;50.892;6.906;2022-08-21T13:44:47;25.40;99.90
18717;DHT22;9487;50.892;6.906;2022-08-21T13:47:16;25.40;99.90
18717;DHT22;9487;50.892;6.906;2022-08-21T13:49:46;25.50;99.90
18717;DHT22;9487;50.892;6.906;2022-08-21T13:52:17;25.60;99.90
18717;DHT22;9487;50.892;6.906;2022-08-21T13:54:54;25.90;99.90
18717;DHT22;9487;50.892;6.906;2022-08-21T13:57:28;26.10;99.90
18717;DHT22;9487;50.892;6.906;2022-08-21T14:00:11;26.40;99.90
18717;DHT22;9487;50.892;6.906;2022-08-21T14:02:40;26.10;99.90
18717;DHT22;9487;50.892;6.906;2022-08-21T14:05:10;26.00;99.90
18717;DHT22;9487;50.892;6.906;2022-08-21T14:07:42;25.90;99.90
18717;DHT22;9487;50.892;6.906;2022-08-21T14:10:13;25.80;99.90
18717;DHT22;9487;50.892;6.906;2022-08-21T14:12:45;25.70;99.90
18717;DHT22;9487;50.892;6.906;2022-08-21T14:15:14;25.70;99.90
18717;DHT22;9487;50.892;6.906;2022-08-21T14:17:44;25.80;99.90
18717;DHT22;9487;50.892;6.906;2022-08-21T14:20:26;25.60;99.90
18717;DHT22;9487;50.892;6.906;2022-08-21T14:22:54;25.50;99.90
18717;DHT22;9487;50.892;6.906;2022-08-21T14:25:29;25.50;99.90
18717;DHT22;9487;50.892;6.906;2022-08-21T14:28:03;25.50;99.90
18717;DHT22;9487;50.892;6.906;2022-08-21T14:30:34;25.50;99.90
18717;DHT22;9487;50.892;6.906;2022-08-21T14:33:03;25.50;99.90
18717;DHT22;9487;50.892;6.906;2022-08-21T14:35:31;25.40;99.90
18717;DHT22;9487;50.892;6.906;2022-08-21T14:37:58;25.30;99.90
18717;DHT22;9487;50.892;6.906;2022-08-21T14:40:25;25.20;99.90
18717;DHT22;9487;50.892;6.906;2022-08-21T14:42:52;25.30;99.90
18717;DHT22;9487;50.892;6.906;2022-08-21T14:45:25;25.20;99.90
18717;DHT22;9487;50.892;6.906;2022-08-21T14:47:53;25.30;99.90
18717;DHT22;9487;50.892;6.906;2022-08-21T14:50:20;25.10;99.90
18717;DHT22;9487;50.892;6.906;2022-08-21T14:52:47;25.10;99.90
18717;DHT22;9487;50.892;6.906;2022-08-21T14:55:16;25.20;99.90
18717;DHT22;9487;50.892;6.906;2022-08-21T14:57:46;25.10;99.90
18717;DHT22;9487;50.892;6.906;2022-08-21T15:00:15;25.00;99.90
18717;DHT22;9487;50.892;6.906;2022-08-21T15:02:44;25.00;99.90
18717;DHT22;9487;50.892;6.906;2022-08-21T15:05:12;24.90;99.90
18717;DHT22;9487;50.892;6.906;2022-08-21T15:07:39;24.80;99.90
18717;DHT22;9487;50.892;6.906;2022-08-21T15:10:07;24.80;99.90
18717;DHT22;9487;50.892;6.906;2022-08-21T15:12:34;24.70;99.90
18717;DHT22;9487;50.892;6.906;2022-08-21T15:15:01;24.70;99.90
18717;DHT22;9487;50.892;6.906;2022-08-21T15:17:29;24.70;99.90
18717;DHT22;9487;50.892;6.906;2022-08-21T15:19:57;24.80;99.90
18717;DHT22;9487;50.892;6.906;2022-08-21T15:22:24;24.80;99.90
18717;DHT22;9487;50.892;6.906;2022-08-21T15:24:50;24.80;99.90
18717;DHT22;9487;50.892;6.906;2022-08-21T15:27:18;24.70;99.90
18717;DHT22;9487;50.892;6.906;2022-08-21T15:29:45;24.70;99.90
18717;DHT22;9487;50.892;6.906;2022-08-21T15:32:18;24.70;99.90
18717;DHT22;9487;50.892;6.906;2022-08-21T15:34:45;24.70;99.90
18717;DHT22;9487;50.892;6.906;2022-08-21T15:37:13;24.90;99.90
18717;DHT22;9487;50.892;6.906;2022-08-21T15:39:40;24.90;99.90
18717;DHT22;9487;50.892;6.906;2022-08-21T15:42:07;24.90;99.90
18717;DHT22;9487;50.892;6.906;2022-08-21T15:44:35;24.80;99.90
18717;DHT22;9487;50.892;6.906;2022-08-21T15:47:11;24.80;99.90
18717;DHT22;9487;50.892;6.906;2022-08-21T15:49:38;25.00;99.90
18717;DHT22;9487;50.892;6.906;2022-08-21T15:52:06;25.00;99.90
18717;DHT22;9487;50.892;6.906;2022-08-21T15:54:35;25.30;99.90
18717;DHT22;9487;50.892;6.906;2022-08-21T15:57:02;25.20;99.90
18717;DHT22;9487;50.892;6.906;2022-08-21T15:59:32;25.30;99.90
18717;DHT22;9487;50.892;6.906;2022-08-21T16:02:05;25.40;99.90